CYTR

Trenton Airport

Trenton, , Canada
METAR CYTR 190800Z 36007KT 15SM FEW037 FEW160 BKN250 14/12 A2993 RMK SC1AC2CI3 SLP135
Observed Flight Rules
Sep-19 @ 08:00 UTC (an hour ago) Visual Flight Rules
Wind Visibility Clouds
360° at 7 knots 15 miles
  • Few at 3,700' AGL
  • Few at 16,000' AGL
  • Broken at 25,000' AGL
Temperatures Readings
Current 14°C / 57°F
Dewpoint 12°C / 54°F
Humidity 88%
Altimeter 29.93" Hg
Pressure 1013.5 hPa
Elevation 86
METAR CYTR 190800Z 36007KT 15SM FEW037 FEW160 BKN250 14/12 A2993 RMK SC1AC2CI3 SLP135
Observed Flight Rules
Sep-19 @ 08:00 UTC
(an hour ago)
VFR
Wind Visibility
360° at 7 knots 15 miles
Clouds
  • Few at 3,700' AGL
  • Few at 16,000' AGL
  • Broken at 25,000' AGL
Temperature Dewpoint
14°C / 57°F 12°C / 54°F
Humidity Altimeter Pressure
88% 29.93" Hg 1013.5 hPa